createdAt,value
2022-11-16T00:02:13.931Z,72.20
2022-11-16T00:04:43.210Z,67.70
2022-11-16T00:07:12.046Z,78.30
2022-11-16T00:09:40.905Z,69.40
2022-11-16T00:12:11.329Z,55.00
2022-11-16T00:14:40.109Z,70.40
2022-11-16T00:17:08.971Z,63.80
2022-11-16T00:19:37.780Z,72.70
2022-11-16T00:22:06.534Z,67.60
2022-11-16T00:24:35.668Z,74.70
2022-11-16T00:27:04.384Z,75.10
2022-11-16T00:29:33.095Z,67.40
2022-11-16T00:32:01.824Z,66.60
2022-11-16T00:34:30.512Z,65.90
2022-11-16T00:36:59.359Z,63.40
2022-11-16T00:39:28.181Z,68.80
2022-11-16T00:41:57.130Z,65.50
2022-11-16T00:44:25.820Z,68.40
2022-11-16T00:46:54.562Z,72.70
2022-11-16T00:49:23.336Z,71.90
2022-11-16T00:51:52.067Z,64.10
2022-11-16T00:54:22.471Z,60.50
2022-11-16T00:56:51.272Z,69.80
2022-11-16T00:59:20.106Z,77.70
2022-11-16T01:01:48.924Z,84.10
2022-11-16T01:04:17.725Z,71.20
2022-11-16T01:06:46.666Z,72.50
2022-11-16T01:09:15.583Z,73.60
2022-11-16T01:12:02.655Z,68.70
2022-11-16T01:14:31.362Z,70.00
2022-11-16T01:17:00.515Z,68.10
2022-11-16T01:19:29.759Z,73.40
2022-11-16T01:21:58.999Z,74.50
2022-11-16T01:24:27.876Z,71.40
2022-11-16T01:26:58.318Z,61.90
2022-11-16T01:29:30.149Z,75.70
2022-11-16T01:31:59.271Z,72.20
2022-11-16T01:34:27.999Z,65.60
2022-11-16T01:36:56.719Z,70.30
2022-11-16T01:39:25.513Z,64.10
2022-11-16T01:41:54.358Z,69.90
2022-11-16T01:44:34.818Z,70.50
2022-11-16T01:47:11.191Z,66.60
2022-11-16T01:49:49.043Z,71.00
2022-11-16T01:52:22.704Z,69.00
2022-11-16T01:54:54.466Z,68.10
2022-11-16T01:57:38.471Z,61.20
2022-11-16T02:00:10.257Z,72.30
2022-11-16T02:02:39.189Z,75.60
2022-11-16T02:05:09.734Z,67.40
2022-11-16T02:08:19.062Z,70.70
2022-11-16T02:11:23.239Z,66.70
2022-11-16T02:14:06.644Z,69.70
2022-11-16T02:17:18.433Z,65.10
2022-11-16T02:20:34.179Z,72.70
2022-11-16T02:24:01.731Z,72.40
2022-11-16T02:27:16.629Z,71.70
2022-11-16T02:29:53.409Z,64.50
2022-11-16T02:32:37.776Z,69.50
2022-11-16T02:35:24.656Z,75.90
2022-11-16T02:37:59.935Z,70.40
2022-11-16T02:40:33.391Z,82.30
2022-11-16T02:43:10.071Z,77.80
2022-11-16T02:45:45.699Z,75.50
2022-11-16T02:48:42.612Z,76.30
2022-11-16T02:51:11.898Z,80.40
2022-11-16T02:53:58.261Z,82.10
2022-11-16T02:56:27.382Z,70.70
2022-11-16T02:58:59.357Z,75.80
2022-11-16T03:01:40.045Z,75.20
2022-11-16T03:04:19.013Z,73.00
2022-11-16T03:06:50.356Z,77.10
2022-11-16T03:09:27.311Z,71.60
2022-11-16T03:12:00.773Z,74.20
2022-11-16T03:14:46.927Z,78.70
2022-11-16T03:17:31.641Z,70.50
2022-11-16T03:20:27.041Z,73.60
2022-11-16T03:23:01.362Z,79.70
2022-11-16T03:25:42.246Z,78.30
2022-11-16T03:28:29.270Z,69.00
2022-11-16T03:31:15.420Z,68.80
2022-11-16T03:33:52.442Z,64.40
2022-11-16T03:36:31.152Z,62.90
2022-11-16T03:39:11.146Z,65.60
2022-11-16T03:41:43.666Z,60.20
2022-11-16T03:44:14.494Z,62.50
2022-11-16T03:46:45.408Z,60.90
2022-11-16T03:49:13.780Z,60.10
2022-11-16T03:51:42.178Z,58.10
2022-11-16T03:54:10.546Z,50.30
2022-11-16T03:56:38.862Z,55.50
2022-11-16T03:59:07.218Z,49.60
2022-11-16T04:01:38.218Z,50.00
2022-11-16T04:04:28.680Z,46.20
2022-11-16T04:07:15.334Z,49.00
2022-11-16T04:10:02.052Z,46.60
2022-11-16T04:12:49.155Z,44.40
2022-11-16T04:15:36.480Z,49.90
2022-11-16T04:18:24.181Z,38.60
2022-11-16T04:21:10.969Z,39.30
2022-11-16T04:23:58.098Z,35.50
2022-11-16T04:26:45.071Z,34.50
2022-11-16T04:29:14.162Z,39.00
2022-11-16T04:32:01.036Z,35.40
2022-11-16T04:34:47.903Z,42.20
2022-11-16T04:37:36.710Z,38.40
2022-11-16T04:40:05.929Z,34.70
2022-11-16T04:42:34.253Z,39.40
2022-11-16T04:45:21.143Z,42.60
2022-11-16T04:47:50.548Z,37.10
2022-11-16T04:50:20.254Z,42.30
2022-11-16T04:52:48.686Z,40.00
2022-11-16T04:55:17.212Z,40.00
2022-11-16T04:57:45.947Z,40.00
2022-11-16T05:00:15.208Z,41.30
2022-11-16T05:02:43.513Z,37.90
2022-11-16T05:05:12.967Z,42.00
2022-11-16T05:07:41.449Z,43.20
2022-11-16T05:10:11.177Z,40.00
2022-11-16T05:12:40.072Z,36.90
2022-11-16T05:15:09.526Z,39.80
2022-11-16T05:17:37.884Z,40.40
2022-11-16T05:20:25.746Z,39.40
2022-11-16T05:22:56.403Z,38.90
2022-11-16T05:25:25.400Z,42.80
2022-11-16T05:27:53.953Z,43.20
2022-11-16T05:30:22.418Z,46.80
2022-11-16T05:32:50.854Z,44.90
2022-11-16T05:35:19.209Z,39.20
2022-11-16T05:37:47.491Z,40.90
2022-11-16T05:40:16.043Z,42.70
2022-11-16T05:42:44.386Z,41.50
2022-11-16T05:45:17.170Z,39.50
2022-11-16T05:47:48.195Z,40.10
2022-11-16T05:50:16.581Z,48.70
2022-11-16T05:52:44.907Z,47.70
2022-11-16T05:55:13.293Z,46.30
2022-11-16T05:57:41.665Z,42.40
2022-11-16T06:00:10.934Z,41.20
2022-11-16T06:02:39.292Z,41.50
2022-11-16T06:05:08.299Z,46.70
2022-11-16T06:07:36.827Z,46.60
2022-11-16T06:10:05.915Z,46.70
2022-11-16T06:12:34.191Z,47.30
2022-11-16T06:15:02.622Z,50.70
2022-11-16T06:17:33.834Z,42.80
2022-11-16T06:20:02.694Z,42.00
2022-11-16T06:22:31.023Z,41.30
2022-11-16T06:24:59.349Z,48.90
2022-11-16T06:27:27.692Z,47.60
2022-11-16T06:29:56.077Z,49.10
2022-11-16T06:32:24.455Z,43.20
2022-11-16T06:34:52.823Z,44.60
2022-11-16T06:37:21.099Z,48.00
2022-11-16T06:39:49.357Z,45.60
2022-11-16T06:42:17.694Z,52.70
2022-11-16T06:44:45.975Z,49.60
2022-11-16T06:47:14.353Z,45.00
2022-11-16T06:49:42.988Z,49.70
2022-11-16T06:52:11.291Z,46.60
2022-11-16T06:54:39.612Z,55.30
2022-11-16T06:57:07.865Z,46.20
2022-11-16T06:59:36.165Z,48.80
2022-11-16T07:02:04.594Z,51.00
2022-11-16T07:04:33.182Z,48.00
2022-11-16T07:07:01.685Z,51.90
2022-11-16T07:09:30.049Z,48.00
2022-11-16T07:11:58.602Z,50.70
2022-11-16T07:14:26.857Z,45.60
2022-11-16T07:16:59.781Z,48.10
2022-11-16T07:19:29.415Z,59.60
2022-11-16T07:21:57.855Z,51.90
2022-11-16T07:24:26.294Z,59.40
2022-11-16T07:26:54.587Z,59.50
2022-11-16T07:29:22.911Z,53.10
2022-11-16T07:31:51.373Z,60.80
2022-11-16T07:34:19.814Z,54.50
2022-11-16T07:36:48.117Z,56.80
2022-11-16T07:39:16.827Z,56.10
2022-11-16T07:41:46.384Z,51.20
2022-11-16T07:44:14.736Z,56.20
2022-11-16T07:46:47.850Z,56.70
2022-11-16T07:49:19.054Z,58.50
2022-11-16T07:51:47.464Z,58.60
2022-11-16T07:54:16.268Z,58.30
2022-11-16T07:56:44.650Z,60.50
2022-11-16T08:04:55.260Z,43.00
2022-11-16T08:07:23.704Z,53.90
2022-11-16T08:09:52.337Z,55.80
2022-11-16T08:12:20.950Z,61.20
2022-11-16T08:14:49.492Z,55.30
2022-11-16T08:17:17.917Z,55.40
2022-11-16T08:19:46.301Z,54.70
2022-11-16T08:22:14.642Z,59.90
2022-11-16T08:24:43.006Z,67.90
2022-11-16T08:27:11.474Z,62.80
2022-11-16T08:29:40.004Z,61.40
2022-11-16T08:32:08.443Z,52.80
2022-11-16T08:34:36.786Z,77.10
2022-11-16T08:37:05.254Z,56.20
2022-11-16T08:39:33.617Z,55.70
2022-11-16T08:42:01.997Z,63.90
2022-11-16T08:44:30.386Z,58.80
2022-11-16T08:46:58.743Z,85.70
2022-11-16T08:49:29.095Z,80.20
2022-11-16T08:51:57.517Z,87.40
2022-11-16T08:54:29.464Z,88.70
2022-11-16T08:56:57.840Z,125.00
2022-11-16T08:59:26.127Z,89.80
2022-11-16T09:01:54.504Z,61.30
2022-11-16T09:04:23.412Z,57.80
2022-11-16T09:06:53.143Z,53.90
2022-11-16T09:09:21.518Z,52.90
2022-11-16T09:11:52.505Z,90.00
2022-11-16T09:14:22.184Z,77.20
2022-11-16T09:16:50.660Z,66.70
2022-11-16T09:19:20.473Z,102.20
2022-11-16T09:21:48.815Z,95.10
2022-11-16T09:24:17.400Z,97.90
2022-11-16T09:26:46.072Z,71.10
2022-11-16T09:29:15.543Z,85.70
2022-11-16T09:31:43.965Z,65.00
2022-11-16T09:34:12.395Z,63.60
2022-11-16T09:36:40.742Z,63.30
2022-11-16T09:42:31.353Z,78.50
2022-11-16T09:45:21.160Z,89.00
2022-11-16T09:47:56.327Z,81.30
2022-11-16T09:50:32.811Z,136.80
2022-11-16T09:53:32.144Z,102.60
2022-11-16T09:56:25.284Z,90.00
2022-11-16T09:59:38.754Z,103.10
2022-11-16T10:02:30.109Z,73.20
2022-11-16T10:05:27.929Z,68.90
2022-11-16T10:08:23.186Z,70.30
2022-11-16T10:11:21.818Z,94.10
2022-11-16T10:14:19.261Z,64.30
2022-11-16T10:17:15.763Z,165.50
2022-11-16T10:19:56.753Z,61.10
2022-11-16T10:22:51.224Z,48.60
2022-11-16T10:25:23.102Z,50.80
2022-11-16T10:28:22.155Z,66.60
2022-11-16T10:31:14.781Z,70.40
2022-11-16T10:33:48.011Z,86.00
2022-11-16T10:36:18.177Z,87.90
2022-11-16T10:38:46.943Z,111.50
2022-11-16T10:41:50.207Z,63.90
2022-11-16T10:44:38.911Z,47.80
2022-11-16T10:47:20.969Z,45.10
2022-11-16T10:50:00.696Z,49.40
2022-11-16T10:52:29.080Z,42.10
2022-11-16T10:54:57.452Z,40.00
2022-11-16T10:57:26.555Z,38.20
2022-11-16T10:59:55.718Z,38.10
2022-11-16T11:02:36.009Z,41.70
2022-11-16T11:05:20.121Z,41.20
2022-11-16T11:08:12.841Z,42.00
2022-11-16T11:10:42.456Z,42.10
2022-11-16T11:13:10.760Z,36.50
2022-11-16T11:15:42.419Z,38.80
2022-11-16T11:18:23.573Z,37.90
2022-11-16T11:20:58.087Z,35.80
2022-11-16T11:23:27.520Z,38.90
2022-11-16T11:25:59.347Z,42.80
2022-11-16T11:28:38.394Z,39.30
2022-11-16T11:31:26.239Z,42.40
2022-11-16T11:34:01.672Z,33.30
2022-11-16T11:39:13.516Z,30.60
2022-11-16T11:41:45.005Z,40.60
2022-11-16T11:44:13.271Z,31.50
2022-11-16T11:49:53.375Z,33.80
2022-11-16T11:52:35.671Z,38.50
2022-11-16T11:55:07.596Z,33.30
2022-11-16T11:57:44.028Z,35.70
2022-11-16T12:00:14.962Z,34.70
2022-11-16T12:03:19.075Z,39.40
2022-11-16T12:06:10.040Z,38.70
2022-11-16T12:09:23.339Z,40.70
2022-11-16T12:12:34.371Z,41.50
2022-11-16T12:15:08.476Z,38.60
2022-11-16T12:18:07.018Z,40.50
2022-11-16T12:21:03.470Z,34.70
2022-11-16T12:24:23.368Z,40.60
2022-11-16T12:27:15.829Z,32.60
2022-11-16T12:30:24.411Z,34.30
2022-11-16T12:33:24.013Z,35.20
2022-11-16T12:36:08.324Z,34.00
2022-11-16T12:39:22.853Z,30.80
2022-11-16T12:42:09.118Z,31.00
2022-11-16T12:45:09.113Z,33.70
2022-11-16T12:47:50.265Z,31.10
2022-11-16T12:50:35.402Z,26.50
2022-11-16T12:53:38.331Z,28.10
2022-11-16T12:56:17.969Z,31.20
2022-11-16T12:59:12.888Z,30.20
2022-11-16T13:02:00.776Z,30.70
2022-11-16T13:04:36.819Z,28.70
2022-11-16T13:07:11.447Z,30.30
2022-11-16T13:09:47.952Z,36.40
2022-11-16T13:12:23.364Z,29.10
2022-11-16T13:17:37.201Z,30.90
2022-11-16T13:20:35.079Z,33.30
2022-11-16T13:23:18.519Z,47.40
2022-11-16T13:26:00.096Z,33.40
2022-11-16T13:29:12.815Z,35.30
2022-11-16T13:32:00.999Z,32.20
2022-11-16T13:34:33.855Z,31.00
2022-11-16T13:37:22.073Z,32.40
2022-11-16T13:40:19.648Z,30.10
2022-11-16T13:43:17.606Z,31.70
2022-11-16T13:45:57.864Z,30.20
2022-11-16T13:48:36.216Z,30.90
2022-11-16T13:51:17.440Z,31.60
2022-11-16T13:56:51.835Z,27.80
2022-11-16T13:59:28.320Z,24.70
2022-11-16T14:02:22.260Z,33.80
2022-11-16T14:04:56.890Z,26.00
2022-11-16T14:07:46.316Z,27.70
2022-11-16T14:10:34.607Z,29.60
2022-11-16T14:13:25.927Z,27.00
2022-11-16T14:16:27.642Z,30.00
2022-11-16T14:19:00.334Z,27.10
2022-11-16T14:22:00.403Z,27.60
2022-11-16T14:24:50.301Z,26.70
2022-11-16T14:27:49.007Z,23.60
2022-11-16T14:30:34.765Z,28.70
2022-11-16T14:35:37.396Z,25.60
2022-11-16T14:38:26.577Z,30.50
2022-11-16T14:40:59.778Z,26.10
2022-11-16T14:43:38.737Z,27.20
2022-11-16T14:46:22.753Z,22.80
2022-11-16T14:48:51.232Z,25.40
2022-11-16T14:51:26.735Z,29.20
2022-11-16T14:54:05.059Z,24.40
2022-11-16T14:56:33.408Z,27.00
2022-11-16T14:59:03.101Z,21.80
2022-11-16T15:01:39.699Z,27.40
2022-11-16T15:04:12.012Z,22.40
2022-11-16T15:06:48.593Z,18.90
2022-11-16T15:09:26.272Z,20.80
2022-11-16T15:12:31.578Z,17.70
2022-11-16T15:15:11.557Z,19.80
2022-11-16T15:17:43.611Z,16.70
2022-11-16T15:20:23.240Z,16.10
2022-11-16T15:22:54.823Z,17.40
2022-11-16T15:25:34.716Z,14.10
2022-11-16T15:28:13.262Z,13.00
2022-11-16T15:30:45.054Z,14.00
2022-11-16T15:33:23.523Z,16.60
2022-11-16T15:35:54.009Z,17.40
2022-11-16T15:38:31.717Z,11.90
2022-11-16T15:41:04.387Z,14.70
2022-11-16T15:44:12.667Z,15.20
2022-11-16T15:46:39.521Z,12.80
2022-11-16T15:49:37.324Z,12.90
2022-11-16T15:52:06.134Z,12.20
2022-11-16T15:54:54.455Z,16.30
2022-11-16T15:57:24.946Z,11.60
2022-11-16T15:59:57.072Z,15.70
2022-11-16T16:02:28.465Z,33.60
2022-11-16T16:04:56.866Z,80.70
2022-11-16T16:07:43.036Z,201.60
2022-11-16T16:10:32.211Z,53.60
2022-11-16T16:13:01.767Z,23.50
2022-11-16T16:15:36.660Z,17.10
2022-11-16T16:18:39.334Z,12.10
2022-11-16T16:21:09.806Z,14.00
2022-11-16T16:23:54.093Z,12.60
2022-11-16T16:26:23.803Z,13.60
2022-11-16T16:29:15.760Z,14.00
2022-11-16T16:31:44.189Z,15.80
2022-11-16T16:34:12.576Z,17.00
2022-11-16T16:36:41.389Z,14.60
2022-11-16T16:39:09.773Z,12.00
2022-11-16T16:41:39.742Z,15.00
2022-11-16T16:44:15.245Z,11.60
2022-11-16T16:54:27.933Z,10.10
2022-11-16T16:56:57.429Z,11.80
2022-11-16T16:59:25.800Z,9.00
2022-11-16T17:01:54.305Z,13.00
2022-11-16T17:04:22.852Z,14.20
2022-11-16T17:06:53.161Z,18.30
2022-11-16T17:09:21.635Z,12.30
2022-11-16T17:11:49.989Z,18.30
2022-11-16T17:14:19.831Z,25.20
2022-11-16T17:16:48.252Z,25.10
2022-11-16T17:19:16.739Z,21.70
2022-11-16T17:21:45.099Z,17.20
2022-11-16T17:24:13.596Z,13.60
2022-11-16T17:26:42.072Z,23.20
2022-11-16T17:29:10.371Z,16.30
2022-11-16T17:31:43.622Z,17.20
2022-11-16T17:34:13.708Z,13.40
2022-11-16T17:36:43.744Z,11.80
2022-11-16T17:39:12.165Z,15.70
2022-11-16T17:41:40.554Z,15.10
2022-11-16T17:44:09.309Z,10.90
2022-11-16T17:46:37.661Z,8.40
2022-11-16T17:49:06.220Z,9.30
2022-11-16T17:51:34.744Z,9.20
2022-11-16T17:54:03.274Z,7.70
2022-11-16T17:56:31.727Z,7.40
2022-11-16T17:59:00.137Z,10.40
2022-11-16T18:01:28.737Z,13.20
2022-11-16T18:03:57.280Z,11.10
2022-11-16T18:06:26.598Z,8.50
2022-11-16T18:08:55.179Z,8.30
2022-11-16T18:11:26.835Z,10.30
2022-11-16T18:13:58.576Z,10.60
2022-11-16T18:16:30.999Z,12.90
2022-11-16T18:19:07.003Z,9.00
2022-11-16T18:21:40.452Z,8.80
2022-11-16T18:24:09.699Z,8.70
2022-11-16T18:26:40.271Z,9.10
2022-11-16T18:29:12.796Z,13.40
2022-11-16T18:31:41.394Z,15.20
2022-11-16T18:34:14.263Z,17.30
2022-11-16T18:36:42.733Z,16.70
2022-11-16T18:39:11.110Z,20.10
2022-11-16T18:41:48.722Z,28.50
2022-11-16T18:44:22.176Z,16.80
2022-11-16T18:46:50.516Z,26.20
2022-11-16T18:49:19.074Z,41.50
2022-11-16T18:51:47.447Z,90.90
2022-11-16T18:54:15.813Z,39.20
2022-11-16T18:56:44.247Z,55.40
2022-11-16T18:59:12.654Z,43.20
2022-11-16T19:01:41.554Z,45.70
2022-11-16T19:04:10.931Z,49.50
2022-11-16T19:06:39.648Z,58.40
2022-11-16T19:09:09.722Z,60.30
2022-11-16T19:11:38.415Z,84.30
2022-11-16T19:14:09.815Z,77.30
2022-11-16T19:16:43.413Z,82.80
2022-11-16T19:19:15.713Z,65.00
2022-11-16T19:21:44.094Z,118.40
2022-11-16T19:24:12.415Z,60.40
2022-11-16T19:26:40.848Z,34.30
2022-11-16T19:29:09.306Z,41.60
2022-11-16T19:31:37.699Z,27.40
2022-11-16T19:34:10.510Z,106.80
2022-11-16T19:36:38.860Z,59.30
2022-11-16T19:39:07.471Z,25.20
2022-11-16T19:41:35.862Z,40.80
2022-11-16T19:44:04.233Z,38.10
2022-11-16T19:46:33.971Z,49.70
2022-11-16T19:49:02.825Z,42.90
2022-11-16T19:51:33.563Z,60.40
2022-11-16T19:54:03.322Z,27.20
2022-11-16T19:56:31.917Z,35.30
2022-11-16T19:59:00.277Z,43.50
2022-11-16T20:01:29.530Z,35.20
2022-11-16T20:04:00.947Z,48.10
2022-11-16T20:06:38.601Z,50.60
2022-11-16T20:09:11.932Z,72.40
2022-11-16T20:11:41.408Z,25.70
2022-11-16T20:14:12.296Z,18.10
2022-11-16T20:16:43.643Z,20.90
2022-11-16T20:19:12.096Z,18.10
2022-11-16T20:21:42.575Z,16.40
2022-11-16T20:24:14.792Z,13.50
2022-11-16T20:26:47.043Z,20.90
2022-11-16T20:29:18.347Z,34.90
2022-11-16T20:31:46.989Z,23.90
2022-11-16T20:34:17.531Z,15.10
2022-11-16T20:36:47.680Z,15.70
2022-11-16T20:39:19.016Z,14.00
2022-11-16T20:41:48.108Z,12.00
2022-11-16T20:44:21.028Z,11.60
2022-11-16T20:46:52.532Z,11.50
2022-11-16T20:49:21.028Z,10.90
2022-11-16T20:51:51.054Z,9.90
2022-11-16T20:54:19.471Z,35.50
2022-11-16T20:56:49.705Z,12.80
2022-11-16T20:59:18.969Z,12.90
2022-11-16T21:01:48.837Z,13.00
2022-11-16T21:04:17.429Z,11.50
2022-11-16T21:06:46.065Z,9.40
2022-11-16T21:09:15.882Z,11.50
2022-11-16T21:12:02.895Z,12.20
2022-11-16T21:14:31.229Z,11.50
2022-11-16T21:16:59.698Z,13.70
2022-11-16T21:19:28.103Z,12.90
2022-11-16T21:21:56.395Z,12.60
2022-11-16T21:24:24.864Z,9.00
2022-11-16T21:26:53.367Z,9.90
2022-11-16T21:29:25.904Z,7.80
2022-11-16T21:31:54.288Z,8.40
2022-11-16T21:34:24.450Z,8.00
2022-11-16T21:36:52.940Z,7.50
2022-11-16T21:39:21.547Z,8.60
2022-11-16T21:41:49.930Z,7.80
2022-11-16T21:44:18.353Z,7.70
2022-11-16T21:46:46.723Z,7.30
2022-11-16T21:49:15.066Z,8.00
2022-11-16T21:51:43.393Z,8.20
2022-11-16T21:54:11.767Z,7.40
2022-11-16T21:56:40.109Z,8.60
2022-11-16T21:59:08.434Z,7.40
2022-11-16T22:01:56.782Z,7.70
2022-11-16T22:04:43.715Z,10.00
2022-11-16T22:07:33.704Z,7.30
2022-11-16T22:10:13.191Z,7.20
2022-11-16T22:15:46.179Z,8.00
2022-11-16T22:18:15.557Z,10.90
2022-11-16T22:20:48.270Z,7.70
2022-11-16T22:23:22.500Z,12.10
2022-11-16T22:26:08.445Z,7.40
2022-11-16T22:28:38.263Z,7.70
2022-11-16T22:31:14.238Z,6.30
2022-11-16T22:33:43.190Z,7.10
2022-11-16T22:36:13.442Z,6.90
2022-11-16T22:38:42.133Z,6.50
2022-11-16T22:41:10.998Z,7.40
2022-11-16T22:43:40.028Z,7.70
2022-11-16T22:46:11.026Z,6.80
2022-11-16T22:48:41.278Z,7.10
2022-11-16T22:51:22.530Z,7.70
2022-11-16T22:54:00.812Z,8.10
2022-11-16T22:56:32.520Z,8.10
2022-11-16T22:59:02.663Z,6.70
2022-11-16T23:01:32.191Z,6.90
2022-11-16T23:04:00.901Z,7.00
2022-11-16T23:06:29.745Z,7.50
2022-11-16T23:08:58.490Z,8.30
2022-11-16T23:11:46.316Z,8.60
2022-11-16T23:14:35.826Z,8.60
2022-11-16T23:17:04.996Z,9.00
2022-11-16T23:19:53.052Z,8.10
2022-11-16T23:22:40.713Z,7.80
2022-11-16T23:25:30.658Z,8.50
2022-11-16T23:28:16.547Z,8.40
2022-11-16T23:33:14.194Z,8.80
2022-11-16T23:35:42.896Z,7.90
2022-11-16T23:38:11.657Z,9.60
2022-11-16T23:40:40.836Z,8.50
2022-11-16T23:43:29.701Z,8.80
2022-11-16T23:45:58.384Z,8.70
2022-11-16T23:48:27.154Z,9.10
2022-11-16T23:50:55.870Z,9.50
2022-11-16T23:53:24.749Z,8.10
2022-11-16T23:55:53.444Z,8.80
2022-11-16T23:58:22.160Z,11.20
